sensor_id;sensor_type;location;lat;lon;timestamp;temperature;humidity
48019;DHT22;33786;48.690;9.562;2024-02-21T00:00:33;3.70;99.90
48019;DHT22;33786;48.690;9.562;2024-02-21T00:03:00;3.70;99.90
48019;DHT22;33786;48.690;9.562;2024-02-21T00:05:29;3.70;99.90
48019;DHT22;33786;48.690;9.562;2024-02-21T00:07:57;3.70;99.90
48019;DHT22;33786;48.690;9.562;2024-02-21T00:10:24;3.70;99.90
48019;DHT22;33786;48.690;9.562;2024-02-21T00:12:52;3.70;99.90
48019;DHT22;33786;48.690;9.562;2024-02-21T00:15:19;3.70;99.90
48019;DHT22;33786;48.690;9.562;2024-02-21T00:17:46;3.80;99.90
48019;DHT22;33786;48.690;9.562;2024-02-21T00:20:13;3.80;99.90
48019;DHT22;33786;48.690;9.562;2024-02-21T00:22:40;3.80;99.90
48019;DHT22;33786;48.690;9.562;2024-02-21T00:25:07;3.90;99.90
48019;DHT22;33786;48.690;9.562;2024-02-21T00:27:34;3.90;99.90
48019;DHT22;33786;48.690;9.562;2024-02-21T00:30:02;3.90;99.90
48019;DHT22;33786;48.690;9.562;2024-02-21T00:32:29;3.90;99.90
48019;DHT22;33786;48.690;9.562;2024-02-21T00:34:56;3.90;99.90
48019;DHT22;33786;48.690;9.562;2024-02-21T00:37:23;4.00;99.90
48019;DHT22;33786;48.690;9.562;2024-02-21T00:39:50;3.90;99.90
48019;DHT22;33786;48.690;9.562;2024-02-21T00:42:17;4.00;99.90
48019;DHT22;33786;48.690;9.562;2024-02-21T00:44:44;3.90;99.90
48019;DHT22;33786;48.690;9.562;2024-02-21T00:47:11;4.00;99.90
48019;DHT22;33786;48.690;9.562;2024-02-21T00:49:38;4.00;99.90
48019;DHT22;33786;48.690;9.562;2024-02-21T00:52:05;4.00;99.90
48019;DHT22;33786;48.690;9.562;2024-02-21T00:54:31;4.00;99.90
48019;DHT22;33786;48.690;9.562;2024-02-21T00:57:13;4.10;99.90
48019;DHT22;33786;48.690;9.562;2024-02-21T00:59:40;4.10;99.90
48019;DHT22;33786;48.690;9.562;2024-02-21T01:02:08;4.10;99.90
48019;DHT22;33786;48.690;9.562;2024-02-21T01:04:35;4.00;99.90
48019;DHT22;33786;48.690;9.562;2024-02-21T01:07:03;4.00;99.90
48019;DHT22;33786;48.690;9.562;2024-02-21T01:09:30;3.90;99.90
48019;DHT22;33786;48.690;9.562;2024-02-21T01:11:57;3.90;99.90
48019;DHT22;33786;48.690;9.562;2024-02-21T01:14:23;4.00;99.90
48019;DHT22;33786;48.690;9.562;2024-02-21T01:16:50;4.00;99.90
48019;DHT22;33786;48.690;9.562;2024-02-21T01:19:17;4.00;99.90
48019;DHT22;33786;48.690;9.562;2024-02-21T01:21:44;3.90;99.90
48019;DHT22;33786;48.690;9.562;2024-02-21T01:24:11;3.90;99.90
48019;DHT22;33786;48.690;9.562;2024-02-21T01:26:37;4.00;99.90
48019;DHT22;33786;48.690;9.562;2024-02-21T01:29:04;4.00;99.90
48019;DHT22;33786;48.690;9.562;2024-02-21T01:31:31;4.00;99.90
48019;DHT22;33786;48.690;9.562;2024-02-21T01:33:58;4.10;99.90
48019;DHT22;33786;48.690;9.562;2024-02-21T01:36:25;4.00;99.90
48019;DHT22;33786;48.690;9.562;2024-02-21T01:38:52;4.00;99.90
48019;DHT22;33786;48.690;9.562;2024-02-21T01:41:19;4.00;99.90
48019;DHT22;33786;48.690;9.562;2024-02-21T01:43:45;4.00;99.90
48019;DHT22;33786;48.690;9.562;2024-02-21T01:46:12;4.10;99.90
48019;DHT22;33786;48.690;9.562;2024-02-21T01:48:40;4.10;99.90
48019;DHT22;33786;48.690;9.562;2024-02-21T01:51:07;4.10;99.90
48019;DHT22;33786;48.690;9.562;2024-02-21T01:53:36;4.10;99.90
48019;DHT22;33786;48.690;9.562;2024-02-21T01:56:05;4.10;99.90
48019;DHT22;33786;48.690;9.562;2024-02-21T01:58:33;4.20;99.90
48019;DHT22;33786;48.690;9.562;2024-02-21T02:01:03;4.20;99.90
48019;DHT22;33786;48.690;9.562;2024-02-21T02:03:31;4.20;99.90
48019;DHT22;33786;48.690;9.562;2024-02-21T02:05:58;4.20;99.90
48019;DHT22;33786;48.690;9.562;2024-02-21T02:08:25;4.20;99.90
48019;DHT22;33786;48.690;9.562;2024-02-21T02:10:52;4.30;99.90
48019;DHT22;33786;48.690;9.562;2024-02-21T02:13:19;4.30;99.90
48019;DHT22;33786;48.690;9.562;2024-02-21T02:15:47;4.30;99.90
48019;DHT22;33786;48.690;9.562;2024-02-21T02:18:16;4.30;99.90
48019;DHT22;33786;48.690;9.562;2024-02-21T02:20:44;4.30;99.90
48019;DHT22;33786;48.690;9.562;2024-02-21T02:23:32;4.30;99.90
48019;DHT22;33786;48.690;9.562;2024-02-21T02:26:00;4.30;99.90
48019;DHT22;33786;48.690;9.562;2024-02-21T02:28:28;4.30;99.90
48019;DHT22;33786;48.690;9.562;2024-02-21T02:30:54;4.30;99.90
48019;DHT22;33786;48.690;9.562;2024-02-21T02:33:21;4.30;99.90
48019;DHT22;33786;48.690;9.562;2024-02-21T02:35:48;4.40;99.90
48019;DHT22;33786;48.690;9.562;2024-02-21T02:38:15;4.40;99.90
48019;DHT22;33786;48.690;9.562;2024-02-21T02:40:43;4.40;99.90
48019;DHT22;33786;48.690;9.562;2024-02-21T02:43:10;4.30;99.90
48019;DHT22;33786;48.690;9.562;2024-02-21T02:45:37;4.30;99.90
48019;DHT22;33786;48.690;9.562;2024-02-21T02:48:04;4.30;99.90
48019;DHT22;33786;48.690;9.562;2024-02-21T02:50:31;4.30;99.90
48019;DHT22;33786;48.690;9.562;2024-02-21T02:52:58;4.30;99.90
48019;DHT22;33786;48.690;9.562;2024-02-21T02:55:25;4.30;99.90
48019;DHT22;33786;48.690;9.562;2024-02-21T02:57:53;4.40;99.90
48019;DHT22;33786;48.690;9.562;2024-02-21T03:00:20;4.40;99.90
48019;DHT22;33786;48.690;9.562;2024-02-21T03:02:49;4.40;99.90
48019;DHT22;33786;48.690;9.562;2024-02-21T03:05:18;4.40;99.90
48019;DHT22;33786;48.690;9.562;2024-02-21T03:07:47;4.40;99.90
48019;DHT22;33786;48.690;9.562;2024-02-21T03:10:14;4.40;99.90
48019;DHT22;33786;48.690;9.562;2024-02-21T03:12:43;4.40;99.90
48019;DHT22;33786;48.690;9.562;2024-02-21T03:15:12;4.40;99.90
48019;DHT22;33786;48.690;9.562;2024-02-21T03:17:39;4.40;99.90
48019;DHT22;33786;48.690;9.562;2024-02-21T03:20:07;4.40;99.90
48019;DHT22;33786;48.690;9.562;2024-02-21T03:22:39;4.40;99.90
48019;DHT22;33786;48.690;9.562;2024-02-21T03:25:07;4.50;99.90
48019;DHT22;33786;48.690;9.562;2024-02-21T03:27:34;4.50;99.90
48019;DHT22;33786;48.690;9.562;2024-02-21T03:30:01;4.50;99.90
48019;DHT22;33786;48.690;9.562;2024-02-21T03:32:28;4.50;99.90
48019;DHT22;33786;48.690;9.562;2024-02-21T03:34:57;4.50;99.90
48019;DHT22;33786;48.690;9.562;2024-02-21T03:37:24;4.50;99.90
48019;DHT22;33786;48.690;9.562;2024-02-21T03:39:51;4.60;99.90
48019;DHT22;33786;48.690;9.562;2024-02-21T03:42:18;4.60;99.90
48019;DHT22;33786;48.690;9.562;2024-02-21T03:44:45;4.60;99.90
48019;DHT22;33786;48.690;9.562;2024-02-21T03:47:12;4.70;99.90
48019;DHT22;33786;48.690;9.562;2024-02-21T03:49:39;4.70;99.90
48019;DHT22;33786;48.690;9.562;2024-02-21T03:52:06;4.80;99.90
48019;DHT22;33786;48.690;9.562;2024-02-21T03:54:33;4.80;99.90
48019;DHT22;33786;48.690;9.562;2024-02-21T03:57:00;4.80;99.90
48019;DHT22;33786;48.690;9.562;2024-02-21T03:59:27;4.80;99.90
48019;DHT22;33786;48.690;9.562;2024-02-21T04:01:54;4.80;99.90
48019;DHT22;33786;48.690;9.562;2024-02-21T04:04:21;4.80;99.90
48019;DHT22;33786;48.690;9.562;2024-02-21T04:06:49;4.70;99.90
48019;DHT22;33786;48.690;9.562;2024-02-21T04:09:16;4.70;99.90
48019;DHT22;33786;48.690;9.562;2024-02-21T04:11:43;4.70;99.90
48019;DHT22;33786;48.690;9.562;2024-02-21T04:14:11;4.60;99.90
48019;DHT22;33786;48.690;9.562;2024-02-21T04:16:40;4.50;99.90
48019;DHT22;33786;48.690;9.562;2024-02-21T04:19:07;4.50;99.90
48019;DHT22;33786;48.690;9.562;2024-02-21T04:21:35;4.50;99.90
48019;DHT22;33786;48.690;9.562;2024-02-21T04:24:02;4.60;99.90
48019;DHT22;33786;48.690;9.562;2024-02-21T04:26:32;4.50;99.90
48019;DHT22;33786;48.690;9.562;2024-02-21T04:28:59;4.40;99.90
48019;DHT22;33786;48.690;9.562;2024-02-21T04:31:26;4.40;99.90
48019;DHT22;33786;48.690;9.562;2024-02-21T04:33:53;4.30;99.90
48019;DHT22;33786;48.690;9.562;2024-02-21T04:36:20;4.40;99.90
48019;DHT22;33786;48.690;9.562;2024-02-21T04:38:47;4.30;99.90
48019;DHT22;33786;48.690;9.562;2024-02-21T04:41:13;4.30;99.90
48019;DHT22;33786;48.690;9.562;2024-02-21T04:43:40;4.30;99.90
48019;DHT22;33786;48.690;9.562;2024-02-21T04:46:07;4.20;99.90
48019;DHT22;33786;48.690;9.562;2024-02-21T04:48:34;4.10;99.90
48019;DHT22;33786;48.690;9.562;2024-02-21T04:51:01;4.10;99.90
48019;DHT22;33786;48.690;9.562;2024-02-21T04:53:27;4.10;99.90
48019;DHT22;33786;48.690;9.562;2024-02-21T04:55:54;4.10;99.90
48019;DHT22;33786;48.690;9.562;2024-02-21T04:58:21;4.10;99.90
48019;DHT22;33786;48.690;9.562;2024-02-21T05:00:48;4.10;99.90
48019;DHT22;33786;48.690;9.562;2024-02-21T05:03:15;4.10;99.90
48019;DHT22;33786;48.690;9.562;2024-02-21T05:05:42;4.20;99.90
48019;DHT22;33786;48.690;9.562;2024-02-21T05:08:09;4.10;99.90
48019;DHT22;33786;48.690;9.562;2024-02-21T05:10:37;4.10;99.90
48019;DHT22;33786;48.690;9.562;2024-02-21T05:13:04;4.10;99.90
48019;DHT22;33786;48.690;9.562;2024-02-21T05:15:31;4.00;99.90
48019;DHT22;33786;48.690;9.562;2024-02-21T05:17:58;3.90;99.90
48019;DHT22;33786;48.690;9.562;2024-02-21T05:20:25;3.90;99.90
48019;DHT22;33786;48.690;9.562;2024-02-21T05:22:52;3.80;99.90
48019;DHT22;33786;48.690;9.562;2024-02-21T05:25:19;3.70;99.90
48019;DHT22;33786;48.690;9.562;2024-02-21T05:27:46;3.60;99.90
48019;DHT22;33786;48.690;9.562;2024-02-21T05:30:12;3.60;99.90
48019;DHT22;33786;48.690;9.562;2024-02-21T05:32:39;3.50;99.90
48019;DHT22;33786;48.690;9.562;2024-02-21T05:35:07;3.40;99.90
48019;DHT22;33786;48.690;9.562;2024-02-21T05:37:34;3.30;99.90
48019;DHT22;33786;48.690;9.562;2024-02-21T05:40:01;3.20;99.90
48019;DHT22;33786;48.690;9.562;2024-02-21T05:42:28;3.00;99.90
48019;DHT22;33786;48.690;9.562;2024-02-21T05:44:55;2.90;99.90
48019;DHT22;33786;48.690;9.562;2024-02-21T05:47:21;2.90;99.90
48019;DHT22;33786;48.690;9.562;2024-02-21T05:49:48;2.80;99.90
48019;DHT22;33786;48.690;9.562;2024-02-21T05:52:15;2.70;99.90
48019;DHT22;33786;48.690;9.562;2024-02-21T05:54:42;2.70;99.90
48019;DHT22;33786;48.690;9.562;2024-02-21T05:57:09;2.60;99.90
48019;DHT22;33786;48.690;9.562;2024-02-21T05:59:38;2.50;99.90
48019;DHT22;33786;48.690;9.562;2024-02-21T06:02:07;2.50;99.90
48019;DHT22;33786;48.690;9.562;2024-02-21T06:04:34;2.40;99.90
48019;DHT22;33786;48.690;9.562;2024-02-21T06:07:01;2.30;99.90
48019;DHT22;33786;48.690;9.562;2024-02-21T06:09:28;2.30;99.90
48019;DHT22;33786;48.690;9.562;2024-02-21T06:11:55;2.30;99.90
48019;DHT22;33786;48.690;9.562;2024-02-21T06:14:22;2.20;99.90
48019;DHT22;33786;48.690;9.562;2024-02-21T06:16:49;2.20;99.90
48019;DHT22;33786;48.690;9.562;2024-02-21T06:19:16;2.10;99.90
48019;DHT22;33786;48.690;9.562;2024-02-21T06:21:43;2.20;99.90
48019;DHT22;33786;48.690;9.562;2024-02-21T06:24:10;2.30;99.90
48019;DHT22;33786;48.690;9.562;2024-02-21T06:26:40;2.30;99.90
48019;DHT22;33786;48.690;9.562;2024-02-21T06:29:07;2.40;99.90
48019;DHT22;33786;48.690;9.562;2024-02-21T06:31:35;2.50;99.90
48019;DHT22;33786;48.690;9.562;2024-02-21T06:34:02;2.50;99.90
48019;DHT22;33786;48.690;9.562;2024-02-21T06:36:30;2.60;99.90
48019;DHT22;33786;48.690;9.562;2024-02-21T06:38:58;2.70;99.90
48019;DHT22;33786;48.690;9.562;2024-02-21T06:41:26;2.80;99.90
48019;DHT22;33786;48.690;9.562;2024-02-21T06:43:52;3.00;99.90
48019;DHT22;33786;48.690;9.562;2024-02-21T06:46:24;3.20;99.90
48019;DHT22;33786;48.690;9.562;2024-02-21T06:48:51;3.50;99.90
48019;DHT22;33786;48.690;9.562;2024-02-21T06:51:18;3.60;99.90
48019;DHT22;33786;48.690;9.562;2024-02-21T06:53:45;3.70;99.90
48019;DHT22;33786;48.690;9.562;2024-02-21T06:56:12;3.80;99.90
48019;DHT22;33786;48.690;9.562;2024-02-21T06:58:39;4.20;99.90
48019;DHT22;33786;48.690;9.562;2024-02-21T07:01:06;4.80;99.90
48019;DHT22;33786;48.690;9.562;2024-02-21T07:03:33;5.00;99.90
48019;DHT22;33786;48.690;9.562;2024-02-21T07:06:00;5.30;99.90
48019;DHT22;33786;48.690;9.562;2024-02-21T07:08:27;6.10;99.90
48019;DHT22;33786;48.690;9.562;2024-02-21T07:10:54;6.80;99.90
48019;DHT22;33786;48.690;9.562;2024-02-21T07:13:21;7.50;99.90
48019;DHT22;33786;48.690;9.562;2024-02-21T07:15:49;8.10;99.90
48019;DHT22;33786;48.690;9.562;2024-02-21T07:18:16;8.80;99.90
48019;DHT22;33786;48.690;9.562;2024-02-21T07:20:43;9.80;99.90
48019;DHT22;33786;48.690;9.562;2024-02-21T07:23:10;10.80;99.40
48019;DHT22;33786;48.690;9.562;2024-02-21T07:25:38;11.40;97.70
48019;DHT22;33786;48.690;9.562;2024-02-21T07:28:05;12.20;96.70
48019;DHT22;33786;48.690;9.562;2024-02-21T07:30:32;12.70;95.40
48019;DHT22;33786;48.690;9.562;2024-02-21T07:32:59;13.00;94.40
48019;DHT22;33786;48.690;9.562;2024-02-21T07:35:26;12.80;94.60
48019;DHT22;33786;48.690;9.562;2024-02-21T07:37:53;12.90;94.00
48019;DHT22;33786;48.690;9.562;2024-02-21T07:40:19;13.20;94.20
48019;DHT22;33786;48.690;9.562;2024-02-21T07:42:46;13.90;93.30
48019;DHT22;33786;48.690;9.562;2024-02-21T07:45:17;14.80;92.30
48019;DHT22;33786;48.690;9.562;2024-02-21T07:47:45;15.70;90.90
48019;DHT22;33786;48.690;9.562;2024-02-21T07:50:12;16.20;90.30
48019;DHT22;33786;48.690;9.562;2024-02-21T07:52:39;16.20;90.00
48019;DHT22;33786;48.690;9.562;2024-02-21T07:55:06;16.30;89.90
48019;DHT22;33786;48.690;9.562;2024-02-21T07:57:33;16.80;88.40
48019;DHT22;33786;48.690;9.562;2024-02-21T08:00:00;16.50;88.80
48019;DHT22;33786;48.690;9.562;2024-02-21T08:02:27;16.20;89.10
48019;DHT22;33786;48.690;9.562;2024-02-21T08:04:53;15.50;89.80
48019;DHT22;33786;48.690;9.562;2024-02-21T08:07:20;15.10;90.30
48019;DHT22;33786;48.690;9.562;2024-02-21T08:09:47;15.10;90.10
48019;DHT22;33786;48.690;9.562;2024-02-21T08:12:14;15.80;89.10
48019;DHT22;33786;48.690;9.562;2024-02-21T08:14:41;15.80;88.00
48019;DHT22;33786;48.690;9.562;2024-02-21T08:17:07;15.80;87.90
48019;DHT22;33786;48.690;9.562;2024-02-21T08:19:34;15.50;88.70
48019;DHT22;33786;48.690;9.562;2024-02-21T08:22:01;15.40;88.90
48019;DHT22;33786;48.690;9.562;2024-02-21T08:24:29;15.00;90.00
48019;DHT22;33786;48.690;9.562;2024-02-21T08:26:57;14.30;90.50
48019;DHT22;33786;48.690;9.562;2024-02-21T08:29:23;14.10;91.20
48019;DHT22;33786;48.690;9.562;2024-02-21T08:31:50;14.10;91.00
48019;DHT22;33786;48.690;9.562;2024-02-21T08:34:17;14.30;91.10
48019;DHT22;33786;48.690;9.562;2024-02-21T08:36:45;14.90;90.30
48019;DHT22;33786;48.690;9.562;2024-02-21T08:39:12;16.00;88.10
48019;DHT22;33786;48.690;9.562;2024-02-21T08:41:43;17.10;86.00
48019;DHT22;33786;48.690;9.562;2024-02-21T08:44:23;18.00;84.20
48019;DHT22;33786;48.690;9.562;2024-02-21T08:46:53;18.10;83.30
48019;DHT22;33786;48.690;9.562;2024-02-21T08:49:20;17.90;83.60
48019;DHT22;33786;48.690;9.562;2024-02-21T08:51:47;17.60;83.90
48019;DHT22;33786;48.690;9.562;2024-02-21T08:54:14;17.00;85.30
48019;DHT22;33786;48.690;9.562;2024-02-21T08:56:41;16.50;86.10
48019;DHT22;33786;48.690;9.562;2024-02-21T08:59:08;15.80;86.90
48019;DHT22;33786;48.690;9.562;2024-02-21T09:01:35;15.60;87.30
48019;DHT22;33786;48.690;9.562;2024-02-21T09:04:03;15.30;88.70
48019;DHT22;33786;48.690;9.562;2024-02-21T09:06:30;15.20;90.00
48019;DHT22;33786;48.690;9.562;2024-02-21T09:08:59;15.20;90.30
48019;DHT22;33786;48.690;9.562;2024-02-21T09:11:26;14.50;90.40
48019;DHT22;33786;48.690;9.562;2024-02-21T09:13:54;14.10;90.60
48019;DHT22;33786;48.690;9.562;2024-02-21T09:16:22;13.50;91.20
48019;DHT22;33786;48.690;9.562;2024-02-21T09:18:50;13.70;91.50
48019;DHT22;33786;48.690;9.562;2024-02-21T09:21:17;13.90;91.70
48019;DHT22;33786;48.690;9.562;2024-02-21T09:23:44;14.10;91.40
48019;DHT22;33786;48.690;9.562;2024-02-21T09:26:11;14.10;91.70
48019;DHT22;33786;48.690;9.562;2024-02-21T09:28:43;14.00;91.10
48019;DHT22;33786;48.690;9.562;2024-02-21T09:31:11;13.90;91.20
48019;DHT22;33786;48.690;9.562;2024-02-21T09:33:37;13.80;91.00
48019;DHT22;33786;48.690;9.562;2024-02-21T09:36:05;14.00;91.30
48019;DHT22;33786;48.690;9.562;2024-02-21T09:38:32;14.00;91.50
48019;DHT22;33786;48.690;9.562;2024-02-21T09:41:03;13.90;91.30
48019;DHT22;33786;48.690;9.562;2024-02-21T09:43:34;13.20;92.20
48019;DHT22;33786;48.690;9.562;2024-02-21T09:46:01;13.20;92.80
48019;DHT22;33786;48.690;9.562;2024-02-21T09:51:02;12.50;93.90
48019;DHT22;33786;48.690;9.562;2024-02-21T09:53:31;13.10;93.00
48019;DHT22;33786;48.690;9.562;2024-02-21T09:55:59;13.90;91.90
48019;DHT22;33786;48.690;9.562;2024-02-21T09:58:26;14.60;91.10
48019;DHT22;33786;48.690;9.562;2024-02-21T10:00:54;15.00;90.10
48019;DHT22;33786;48.690;9.562;2024-02-21T10:03:21;14.90;90.40
48019;DHT22;33786;48.690;9.562;2024-02-21T10:05:49;15.00;90.70
48019;DHT22;33786;48.690;9.562;2024-02-21T10:08:20;15.00;90.60
48019;DHT22;33786;48.690;9.562;2024-02-21T10:10:46;15.10;90.80
48019;DHT22;33786;48.690;9.562;2024-02-21T10:13:28;15.10;90.60
48019;DHT22;33786;48.690;9.562;2024-02-21T10:16:05;15.20;89.90
48019;DHT22;33786;48.690;9.562;2024-02-21T10:18:36;15.30;89.50
48019;DHT22;33786;48.690;9.562;2024-02-21T10:21:07;15.30;89.00
48019;DHT22;33786;48.690;9.562;2024-02-21T10:23:50;15.60;88.30
48019;DHT22;33786;48.690;9.562;2024-02-21T10:26:18;16.20;87.60
48019;DHT22;33786;48.690;9.562;2024-02-21T10:28:46;16.20;87.50
48019;DHT22;33786;48.690;9.562;2024-02-21T10:31:24;16.40;86.90
48019;DHT22;33786;48.690;9.562;2024-02-21T10:36:23;17.80;84.50
48019;DHT22;33786;48.690;9.562;2024-02-21T10:38:54;17.90;83.10
48019;DHT22;33786;48.690;9.562;2024-02-21T10:41:22;17.50;82.00
48019;DHT22;33786;48.690;9.562;2024-02-21T10:43:57;17.60;82.10
48019;DHT22;33786;48.690;9.562;2024-02-21T10:46:24;17.80;82.90
48019;DHT22;33786;48.690;9.562;2024-02-21T10:49:30;18.30;82.30
48019;DHT22;33786;48.690;9.562;2024-02-21T10:52:09;18.70;80.90
48019;DHT22;33786;48.690;9.562;2024-02-21T10:57:17;18.40;80.20
48019;DHT22;33786;48.690;9.562;2024-02-21T10:59:46;18.00;81.00
48019;DHT22;33786;48.690;9.562;2024-02-21T11:02:15;17.80;81.10
48019;DHT22;33786;48.690;9.562;2024-02-21T11:04:43;17.60;81.50
48019;DHT22;33786;48.690;9.562;2024-02-21T11:07:11;17.40;82.40
48019;DHT22;33786;48.690;9.562;2024-02-21T11:09:38;17.40;81.70
48019;DHT22;33786;48.690;9.562;2024-02-21T11:12:06;17.40;81.90
48019;DHT22;33786;48.690;9.562;2024-02-21T11:14:34;17.10;80.20
48019;DHT22;33786;48.690;9.562;2024-02-21T11:17:19;16.80;81.50
48019;DHT22;33786;48.690;9.562;2024-02-21T11:19:48;16.20;82.50
48019;DHT22;33786;48.690;9.562;2024-02-21T11:22:19;16.20;82.90
48019;DHT22;33786;48.690;9.562;2024-02-21T11:24:47;16.40;83.20
48019;DHT22;33786;48.690;9.562;2024-02-21T11:27:19;16.10;83.50
48019;DHT22;33786;48.690;9.562;2024-02-21T11:29:56;15.70;84.00
48019;DHT22;33786;48.690;9.562;2024-02-21T11:32:23;15.50;86.00
48019;DHT22;33786;48.690;9.562;2024-02-21T11:37:31;15.30;86.20
48019;DHT22;33786;48.690;9.562;2024-02-21T11:40:00;15.20;84.10
48019;DHT22;33786;48.690;9.562;2024-02-21T11:42:28;14.80;84.90
48019;DHT22;33786;48.690;9.562;2024-02-21T11:44:56;14.80;85.60
48019;DHT22;33786;48.690;9.562;2024-02-21T11:47:24;15.10;84.80
48019;DHT22;33786;48.690;9.562;2024-02-21T11:49:51;15.00;84.60
48019;DHT22;33786;48.690;9.562;2024-02-21T11:52:25;14.40;85.90
48019;DHT22;33786;48.690;9.562;2024-02-21T11:54:53;14.80;86.20
48019;DHT22;33786;48.690;9.562;2024-02-21T11:57:21;15.10;86.80
48019;DHT22;33786;48.690;9.562;2024-02-21T11:59:48;15.60;86.00
48019;DHT22;33786;48.690;9.562;2024-02-21T12:02:19;15.70;85.90
48019;DHT22;33786;48.690;9.562;2024-02-21T12:04:46;16.00;84.90
48019;DHT22;33786;48.690;9.562;2024-02-21T12:07:14;16.10;85.10
48019;DHT22;33786;48.690;9.562;2024-02-21T12:09:41;16.00;83.40
48019;DHT22;33786;48.690;9.562;2024-02-21T12:12:08;16.20;81.90
48019;DHT22;33786;48.690;9.562;2024-02-21T12:14:35;15.90;82.60
48019;DHT22;33786;48.690;9.562;2024-02-21T12:17:03;16.10;82.10
48019;DHT22;33786;48.690;9.562;2024-02-21T12:19:33;16.10;83.50
48019;DHT22;33786;48.690;9.562;2024-02-21T12:22:01;15.90;83.30
48019;DHT22;33786;48.690;9.562;2024-02-21T12:24:33;16.00;85.00
48019;DHT22;33786;48.690;9.562;2024-02-21T12:27:00;15.70;83.50
48019;DHT22;33786;48.690;9.562;2024-02-21T12:29:30;15.60;83.10
48019;DHT22;33786;48.690;9.562;2024-02-21T12:31:57;15.80;83.80
48019;DHT22;33786;48.690;9.562;2024-02-21T12:34:24;15.60;83.60
48019;DHT22;33786;48.690;9.562;2024-02-21T12:37:10;15.70;84.70
48019;DHT22;33786;48.690;9.562;2024-02-21T12:39:40;15.60;84.40
48019;DHT22;33786;48.690;9.562;2024-02-21T12:42:06;15.60;85.20
48019;DHT22;33786;48.690;9.562;2024-02-21T12:44:33;15.30;83.60
48019;DHT22;33786;48.690;9.562;2024-02-21T12:47:00;15.00;84.30
48019;DHT22;33786;48.690;9.562;2024-02-21T12:49:27;15.00;83.50
48019;DHT22;33786;48.690;9.562;2024-02-21T12:51:56;15.00;86.00
48019;DHT22;33786;48.690;9.562;2024-02-21T12:54:23;15.00;85.40
48019;DHT22;33786;48.690;9.562;2024-02-21T12:56:50;14.80;85.80
48019;DHT22;33786;48.690;9.562;2024-02-21T12:59:17;14.80;85.20
48019;DHT22;33786;48.690;9.562;2024-02-21T13:01:43;14.70;85.60
48019;DHT22;33786;48.690;9.562;2024-02-21T13:04:11;14.80;83.70
48019;DHT22;33786;48.690;9.562;2024-02-21T13:06:38;14.80;84.70
48019;DHT22;33786;48.690;9.562;2024-02-21T13:09:05;14.80;84.80
48019;DHT22;33786;48.690;9.562;2024-02-21T13:11:34;14.70;85.00
48019;DHT22;33786;48.690;9.562;2024-02-21T13:14:01;14.60;84.70
48019;DHT22;33786;48.690;9.562;2024-02-21T13:16:29;14.40;85.80
48019;DHT22;33786;48.690;9.562;2024-02-21T13:18:55;14.40;86.40
48019;DHT22;33786;48.690;9.562;2024-02-21T13:21:23;14.30;87.90
48019;DHT22;33786;48.690;9.562;2024-02-21T13:23:49;14.30;87.80
48019;DHT22;33786;48.690;9.562;2024-02-21T13:26:16;14.40;88.60
48019;DHT22;33786;48.690;9.562;2024-02-21T13:28:43;14.50;86.60
48019;DHT22;33786;48.690;9.562;2024-02-21T13:31:12;14.40;87.70
48019;DHT22;33786;48.690;9.562;2024-02-21T13:33:39;14.50;89.40
48019;DHT22;33786;48.690;9.562;2024-02-21T13:36:06;14.50;89.50
48019;DHT22;33786;48.690;9.562;2024-02-21T13:38:33;14.40;89.80
48019;DHT22;33786;48.690;9.562;2024-02-21T13:41:00;14.50;88.30
48019;DHT22;33786;48.690;9.562;2024-02-21T13:43:27;14.50;87.90
48019;DHT22;33786;48.690;9.562;2024-02-21T13:46:00;14.00;89.00
48019;DHT22;33786;48.690;9.562;2024-02-21T13:48:28;13.80;90.00
48019;DHT22;33786;48.690;9.562;2024-02-21T13:50:56;13.80;90.40
48019;DHT22;33786;48.690;9.562;2024-02-21T13:53:23;13.60;90.10
48019;DHT22;33786;48.690;9.562;2024-02-21T13:55:50;13.40;90.00
48019;DHT22;33786;48.690;9.562;2024-02-21T13:58:17;13.60;89.20
48019;DHT22;33786;48.690;9.562;2024-02-21T14:00:44;13.70;88.70
48019;DHT22;33786;48.690;9.562;2024-02-21T14:03:12;13.60;89.20
48019;DHT22;33786;48.690;9.562;2024-02-21T14:05:39;13.80;89.10
48019;DHT22;33786;48.690;9.562;2024-02-21T14:08:09;13.70;89.30
48019;DHT22;33786;48.690;9.562;2024-02-21T14:10:36;13.80;88.70
48019;DHT22;33786;48.690;9.562;2024-02-21T14:13:04;13.90;89.00
48019;DHT22;33786;48.690;9.562;2024-02-21T14:15:31;13.90;88.90
48019;DHT22;33786;48.690;9.562;2024-02-21T14:17:58;13.80;89.40
48019;DHT22;33786;48.690;9.562;2024-02-21T14:20:25;13.80;89.20
48019;DHT22;33786;48.690;9.562;2024-02-21T14:22:51;13.80;89.50
48019;DHT22;33786;48.690;9.562;2024-02-21T14:25:18;13.80;89.40
48019;DHT22;33786;48.690;9.562;2024-02-21T14:27:45;13.70;88.50
48019;DHT22;33786;48.690;9.562;2024-02-21T14:30:12;13.70;89.00
48019;DHT22;33786;48.690;9.562;2024-02-21T14:32:43;13.70;88.90
48019;DHT22;33786;48.690;9.562;2024-02-21T14:35:11;13.60;89.50
48019;DHT22;33786;48.690;9.562;2024-02-21T14:37:38;13.40;90.00
48019;DHT22;33786;48.690;9.562;2024-02-21T14:40:05;13.40;89.60
48019;DHT22;33786;48.690;9.562;2024-02-21T14:42:32;13.40;90.10
48019;DHT22;33786;48.690;9.562;2024-02-21T14:45:00;13.40;90.20
48019;DHT22;33786;48.690;9.562;2024-02-21T14:47:32;13.30;90.60
48019;DHT22;33786;48.690;9.562;2024-02-21T14:50:00;13.30;90.20
48019;DHT22;33786;48.690;9.562;2024-02-21T14:52:28;13.40;90.40
48019;DHT22;33786;48.690;9.562;2024-02-21T14:54:56;13.40;90.20
48019;DHT22;33786;48.690;9.562;2024-02-21T14:57:23;13.40;90.40
48019;DHT22;33786;48.690;9.562;2024-02-21T14:59:51;13.40;90.50
48019;DHT22;33786;48.690;9.562;2024-02-21T15:02:23;13.40;90.30
48019;DHT22;33786;48.690;9.562;2024-02-21T15:04:50;13.30;90.30
48019;DHT22;33786;48.690;9.562;2024-02-21T15:07:20;13.30;90.30
48019;DHT22;33786;48.690;9.562;2024-02-21T15:09:54;13.20;90.60
48019;DHT22;33786;48.690;9.562;2024-02-21T15:12:21;13.20;90.50
48019;DHT22;33786;48.690;9.562;2024-02-21T15:14:50;13.30;90.60
48019;DHT22;33786;48.690;9.562;2024-02-21T15:17:18;13.30;91.00
48019;DHT22;33786;48.690;9.562;2024-02-21T15:19:45;13.20;91.00
48019;DHT22;33786;48.690;9.562;2024-02-21T15:22:12;13.10;90.60
48019;DHT22;33786;48.690;9.562;2024-02-21T15:24:40;13.00;90.90
48019;DHT22;33786;48.690;9.562;2024-02-21T15:27:07;12.90;91.40
48019;DHT22;33786;48.690;9.562;2024-02-21T15:29:37;12.90;91.00
48019;DHT22;33786;48.690;9.562;2024-02-21T15:32:04;12.80;91.40
48019;DHT22;33786;48.690;9.562;2024-02-21T15:34:32;12.80;91.50
48019;DHT22;33786;48.690;9.562;2024-02-21T15:36:59;12.80;91.20
48019;DHT22;33786;48.690;9.562;2024-02-21T15:39:26;12.80;90.90
48019;DHT22;33786;48.690;9.562;2024-02-21T15:41:54;12.70;91.40
48019;DHT22;33786;48.690;9.562;2024-02-21T15:44:23;12.70;91.60
48019;DHT22;33786;48.690;9.562;2024-02-21T15:46:50;12.70;92.20
48019;DHT22;33786;48.690;9.562;2024-02-21T15:49:20;12.70;92.20
48019;DHT22;33786;48.690;9.562;2024-02-21T15:51:47;12.60;92.70